Time;durP1;ratioP1;P1;durP2;ratioP2;P2;SDS_P1;SDS_P2;PMS_P1;PMS_P2;Temp;Humidity;BMP_temperature;BMP_pressure;BME280_temperature;BME280_humidity;BME280_pressure;Samples;Min_cycle;Max_cycle;Signal;HPM_P1;HPM_P2
2022/07/11 00:00:58;;;;;;;;;2.00;2.00;;;;;20.54;100.00;101894.50;4889549;28;44730;-94
2022/07/11 00:03:24;;;;;;;;;2.20;2.20;;;;;20.52;100.00;101898.34;4889726;28;44767;-94
2022/07/11 00:05:49;;;;;;;;;3.75;3.75;;;;;20.47;100.00;101887.97;4909668;28;44958;-93
2022/07/11 00:08:15;;;;;;;;;3.00;3.00;;;;;20.48;100.00;101894.22;4931692;28;45331;-94
2022/07/11 00:10:43;;;;;;;;;2.75;2.75;;;;;20.42;100.00;101882.09;4937885;28;44579;-93
2022/07/11 00:13:08;;;;;;;;;3.60;3.60;;;;;20.41;100.00;101895.75;4916502;28;44728;-93
2022/07/11 00:15:34;;;;;;;;;2.50;2.50;;;;;20.34;100.00;101887.34;4912756;28;45051;-94
2022/07/11 00:18:00;;;;;;;;;3.00;3.00;;;;;20.29;100.00;101887.75;4913664;28;45399;-93
2022/07/11 00:20:26;;;;;;;;;3.40;3.40;;;;;20.27;100.00;101886.19;4913403;28;44787;-93
2022/07/11 00:22:52;;;;;;;;;2.40;2.40;;;;;20.29;100.00;101895.00;4916643;28;44802;-93
2022/07/11 00:25:20;;;;;;;;;3.20;3.20;;;;;20.27;100.00;101888.91;4921448;28;44877;-94
2022/07/11 00:27:46;;;;;;;;;4.40;2.80;;;;;20.23;100.00;101891.00;4923418;28;45383;-93
2022/07/11 00:30:12;;;;;;;;;4.00;2.80;;;;;20.19;100.00;101886.88;4922234;28;44593;-93
2022/07/11 00:32:40;;;;;;;;;3.00;3.00;;;;;20.16;100.00;101891.69;4905744;28;44677;-94
2022/07/11 00:35:07;;;;;;;;;3.80;3.80;;;;;20.13;100.00;101892.81;4922013;28;44903;-94
2022/07/11 00:37:33;;;;;;;;;4.60;3.80;;;;;20.10;100.00;101894.94;4904388;28;45305;-93
2022/07/11 00:40:00;;;;;;;;;4.00;3.00;;;;;20.08;100.00;101899.63;4902290;28;44932;-93
2022/07/11 00:42:26;;;;;;;;;3.60;2.00;;;;;20.01;100.00;101891.19;4918815;28;44628;-94
2022/07/11 00:44:53;;;;;;;;;2.00;2.00;;;;;19.94;100.00;101885.50;4930702;28;44921;-94
2022/07/11 00:47:21;;;;;;;;;2.60;2.60;;;;;19.93;100.00;101891.91;4935810;28;45337;-94
2022/07/11 00:49:50;;;;;;;;;4.60;3.00;;;;;19.92;100.00;101897.41;4935569;28;44708;-94
2022/07/11 00:52:20;;;;;;;;;2.00;2.00;;;;;19.90;100.00;101888.59;4937056;28;44635;-93
2022/07/11 00:54:46;;;;;;;;;3.00;3.00;;;;;19.87;100.00;101883.47;4955585;28;44906;-94
2022/07/11 00:57:13;;;;;;;;;2.20;2.20;;;;;19.81;100.00;101871.38;4956582;28;45073;-93
2022/07/11 00:59:41;;;;;;;;;3.80;2.40;;;;;19.81;100.00;101871.38;4925551;28;44770;-94
2022/07/11 01:02:07;;;;;;;;;3.20;3.00;;;;;19.81;100.00;101871.38;4939051;28;44688;-94
2022/07/11 01:04:36;;;;;;;;;4.00;3.80;;;;;19.82;100.00;101880.31;4937421;28;44873;-93
2022/07/11 01:07:05;;;;;;;;;2.60;2.60;;;;;19.80;100.00;101882.31;4937164;28;45216;-93
2022/07/11 01:09:31;;;;;;;;;2.60;2.60;;;;;19.75;100.00;101870.09;4950467;28;44771;-93
2022/07/11 01:11:58;;;;;;;;;2.00;2.00;;;;;19.74;100.00;101870.22;4937572;28;44648;-93
2022/07/11 01:14:25;;;;;;;;;3.20;3.20;;;;;19.73;100.00;101869.38;4934242;28;44757;-94
2022/07/11 01:16:51;;;;;;;;;2.40;2.40;;;;;19.70;100.00;101872.34;4951718;28;45254;-93
2022/07/11 01:19:17;;;;;;;;;3.00;3.00;;;;;19.69;100.00;101862.53;4952472;28;44787;-93
2022/07/11 01:21:48;;;;;;;;;4.00;4.00;;;;;19.65;100.00;101866.50;4968649;28;45043;-94
2022/07/11 01:24:15;;;;;;;;;2.00;2.00;;;;;19.67;100.00;101872.59;4948918;28;45125;-92
2022/07/11 01:26:43;;;;;;;;;2.00;2.00;;;;;19.61;100.00;101858.81;4937102;28;46709;-94
2022/07/11 01:29:14;;;;;;;;;2.80;2.80;;;;;19.61;100.00;101867.75;4953202;28;44794;-93
2022/07/11 01:31:41;;;;;;;;;2.00;1.00;;;;;19.60;100.00;101863.34;4970127;28;44784;-93
2022/07/11 01:34:11;;;;;;;;;3.20;2.80;;;;;19.57;100.00;101871.66;4952854;28;44766;-92
2022/07/11 01:36:37;;;;;;;;;2.20;2.20;;;;;19.55;100.00;101864.69;4934468;28;45115;-94
2022/07/11 01:39:07;;;;;;;;;3.20;3.20;;;;;19.52;100.00;101863.13;4961952;28;44793;-92
2022/07/11 01:41:34;;;;;;;;;2.00;2.00;;;;;19.45;100.00;101865.50;4943351;28;44709;-93
2022/07/11 01:44:00;;;;;;;;;2.20;2.20;;;;;19.44;100.00;101865.66;4920398;28;44958;-93
2022/07/11 01:46:26;;;;;;;;;2.00;2.00;;;;;19.36;100.00;101860.06;4920115;28;45472;-92
2022/07/11 01:48:51;;;;;;;;;2.50;2.50;;;;;19.39;100.00;101862.47;4936399;28;44614;-94
2022/07/11 01:51:18;;;;;;;;;2.25;1.75;;;;;19.36;100.00;101862.75;4938194;28;44619;-93
2022/07/11 01:53:45;;;;;;;;;2.00;2.00;;;;;19.35;100.00;101866.44;4954181;28;44982;-93
2022/07/11 01:56:12;;;;;;;;;2.20;2.00;;;;;19.35;100.00;101861.91;4926542;28;45476;-93
2022/07/11 01:58:38;;;;;;;;;2.40;2.40;;;;;19.34;100.00;101872.78;4944566;28;44693;-94
2022/07/11 02:01:04;;;;;;;;;4.00;3.00;;;;;19.29;100.00;101856.16;4945443;28;44828;-92
2022/07/11 02:03:29;;;;;;;;;2.00;2.00;;;;;19.32;100.00;101867.53;4959976;28;44916;-93
2022/07/11 02:05:55;;;;;;;;;7.75;2.25;;;;;19.31;100.00;101865.84;4942811;28;45203;-94
2022/07/11 02:08:21;;;;;;;;;3.00;3.00;;;;;19.32;100.00;101864.00;4946295;28;44660;-93
2022/07/11 02:10:48;;;;;;;;;2.80;2.80;;;;;19.28;100.00;101860.69;4948647;28;44711;-93
2022/07/11 02:13:16;;;;;;;;;3.00;3.00;;;;;19.26;100.00;101860.00;4950908;28;44865;-93
2022/07/11 02:15:43;;;;;;;;;2.40;2.40;;;;;19.22;100.00;101851.31;4951456;28;45187;-93
2022/07/11 02:18:12;;;;;;;;;2.20;2.20;;;;;19.24;100.00;101859.25;4948364;28;44756;-94
2022/07/11 02:20:41;;;;;;;;;2.40;2.40;;;;;19.22;100.00;101869.31;4932510;28;44620;-94
2022/07/11 02:23:08;;;;;;;;;2.00;2.00;;;;;19.18;100.00;101866.03;4964524;28;44937;-93
2022/07/11 02:25:38;;;;;;;;;2.00;2.00;;;;;19.20;100.00;101877.53;4949455;28;45402;-92
2022/07/11 02:28:05;;;;;;;;;2.00;1.40;;;;;19.17;100.00;101872.41;4952180;28;44757;-95
2022/07/11 02:30:32;;;;;;;;;2.00;2.00;;;;;19.12;100.00;101865.69;4935608;28;44739;-92
2022/07/11 02:32:58;;;;;;;;;5.60;3.00;;;;;19.14;100.00;101878.03;4946602;28;44902;-94
2022/07/11 02:35:25;;;;;;;;;2.25;2.25;;;;;19.12;100.00;101869.25;4937731;28;45086;-92
2022/07/11 02:37:52;;;;;;;;;2.60;2.60;;;;;19.12;100.00;101874.63;4940810;28;44637;-93
2022/07/11 02:40:19;;;;;;;;;2.40;2.40;;;;;19.06;100.00;101868.91;4925821;28;44592;-94
2022/07/11 02:42:45;;;;;;;;;2.40;2.40;;;;;19.04;100.00;101870.88;4947547;28;44851;-92
2022/07/11 02:45:10;;;;;;;;;2.00;2.00;;;;;19.04;100.00;101865.47;4946697;28;45268;-93
2022/07/11 02:47:39;;;;;;;;;2.50;2.50;;;;;19.01;100.00;101866.63;4932224;28;44735;-92
2022/07/11 02:50:07;;;;;;;;;3.00;3.00;;;;;18.96;100.00;101855.38;4951314;28;44735;-93
2022/07/11 02:52:32;;;;;;;;;1.20;1.20;;;;;18.98;100.00;101873.09;4937807;28;44807;-90
2022/07/11 02:54:58;;;;;;;;;2.00;2.00;;;;;18.98;100.00;101866.88;4932378;28;46701;-90
2022/07/11 02:57:24;;;;;;;;;3.00;3.00;;;;;18.98;100.00;101867.72;4953774;28;44767;-90
2022/07/11 02:59:49;;;;;;;;;2.00;2.00;;;;;19.00;100.00;101870.25;4949857;28;44756;-89
2022/07/11 03:02:15;;;;;;;;;2.00;2.00;;;;;19.01;100.00;101863.91;4934813;28;44793;-91
2022/07/11 03:04:41;;;;;;;;;2.00;2.00;;;;;18.99;100.00;101860.50;4950834;28;45245;-91
2022/07/11 03:07:07;;;;;;;;;2.00;2.00;;;;;18.97;100.00;101863.31;4919469;28;44758;-91
2022/07/11 03:09:32;;;;;;;;;3.00;3.00;;;;;18.98;100.00;101861.47;4952479;28;44805;-90
2022/07/11 03:11:58;;;;;;;;;4.25;3.00;;;;;18.96;100.00;101861.63;4952873;28;44817;-90
2022/07/11 03:14:25;;;;;;;;;2.25;2.25;;;;;18.96;100.00;101858.94;4931779;28;45604;-89
2022/07/11 03:16:52;;;;;;;;;4.60;3.20;;;;;18.97;100.00;101855.25;4949235;28;45307;-90
2022/07/11 03:19:17;;;;;;;;;2.00;2.00;;;;;18.95;100.00;101857.22;4930040;28;44696;-91
2022/07/11 03:21:43;;;;;;;;;3.00;3.00;;;;;18.95;100.00;101848.25;4929912;28;44802;-90
2022/07/11 03:24:08;;;;;;;;;3.00;3.00;;;;;18.94;100.00;101851.94;4948591;28;45024;-90
2022/07/11 03:26:33;;;;;;;;;4.00;3.00;;;;;18.91;100.00;101852.22;4948311;28;44605;-91
2022/07/11 03:28:59;;;;;;;;;3.50;2.75;;;;;18.89;100.00;101854.16;4929418;28;44813;-90
2022/07/11 03:31:24;;;;;;;;;2.00;2.00;;;;;18.85;100.00;101852.72;4947127;28;44816;-90
2022/07/11 03:33:50;;;;;;;;;2.00;2.00;;;;;18.83;100.00;101860.94;4942252;28;45269;-89
2022/07/11 03:36:15;;;;;;;;;4.00;1.00;;;;;18.80;100.00;101852.25;4947763;28;44709;-89
2022/07/11 03:38:41;;;;;;;;;2.00;2.00;;;;;18.82;100.00;101863.75;4930011;28;44776;-90
2022/07/11 03:41:06;;;;;;;;;1.75;1.75;;;;;18.78;100.00;101863.16;4930794;28;44875;-90
2022/07/11 03:43:33;;;;;;;;;3.50;2.75;;;;;18.80;100.00;101866.56;4927532;28;45251;-90
2022/07/11 03:45:58;;;;;;;;;3.80;2.40;;;;;18.79;100.00;101867.56;4928223;28;44814;-90
2022/07/11 03:48:25;;;;;;;;;2.75;2.75;;;;;18.78;100.00;101873.06;4934245;28;45300;-90
2022/07/11 03:50:50;;;;;;;;;3.60;3.60;;;;;18.77;100.00;101864.16;4936376;28;44820;-90
2022/07/11 03:53:16;;;;;;;;;2.00;2.00;;;;;18.77;100.00;101861.47;4932409;28;45130;-90
2022/07/11 03:55:41;;;;;;;;;2.00;2.00;;;;;18.78;100.00;101870.38;4927951;28;45165;-89
2022/07/11 03:58:07;;;;;;;;;3.25;3.25;;;;;18.75;100.00;101858.88;4926201;28;45560;-90
2022/07/11 04:00:32;;;;;;;;;2.75;2.75;;;;;18.78;100.00;101865.00;4924013;28;44804;-90
2022/07/11 04:02:58;;;;;;;;;2.50;2.50;;;;;18.74;100.00;101862.56;4922694;28;45016;-90
2022/07/11 04:05:25;;;;;;;;;1.75;1.00;;;;;18.73;100.00;101866.22;4923290;28;44765;-91
2022/07/11 04:07:50;;;;;;;;;3.00;3.00;;;;;18.69;100.00;101863.94;4923373;28;44816;-89
2022/07/11 04:10:17;;;;;;;;;2.50;2.25;;;;;18.68;100.00;101859.50;4928888;28;44764;-91
2022/07/11 04:16:05;;;;;;;;;3.00;3.00;;;;;18.85;100.00;101864.34;4938117;28;44760;-93
2022/07/11 04:21:54;;;;;;;;;3.80;3.80;;;;;19.08;100.00;101858.84;4950674;28;44691;-92
2022/07/11 04:24:22;;;;;;;;;5.00;3.00;;;;;19.20;100.00;101849.75;4953843;28;45021;-93
2022/07/11 04:26:47;;;;;;;;;3.00;2.80;;;;;19.31;100.00;101849.66;4936664;28;44768;-93
2022/07/11 04:29:13;;;;;;;;;3.00;3.00;;;;;19.35;100.00;101845.72;4919053;28;44715;-93
2022/07/11 04:31:39;;;;;;;;;3.50;2.00;;;;;19.44;100.00;101847.63;4932106;28;44829;-93
2022/07/11 04:34:06;;;;;;;;;3.00;3.00;;;;;19.56;100.00;101856.47;4933194;28;46663;-94
2022/07/11 04:36:34;;;;;;;;;2.00;2.00;;;;;19.69;100.00;101857.16;4932115;28;44600;-93
2022/07/11 04:39:01;;;;;;;;;2.20;2.20;;;;;19.79;100.00;101859.03;4933638;28;44791;-93
2022/07/11 04:41:29;;;;;;;;;2.20;2.20;;;;;19.93;100.00;101867.63;4933624;28;44866;-92
2022/07/11 04:43:56;;;;;;;;;3.00;2.00;;;;;20.00;100.00;101860.66;4934610;28;44996;-92
2022/07/11 04:46:23;;;;;;;;;4.40;3.00;;;;;20.05;100.00;101868.34;4920049;28;44642;-93
2022/07/11 04:48:49;;;;;;;;;2.60;2.60;;;;;20.16;100.00;101880.88;4905172;28;44604;-94
2022/07/11 04:51:17;;;;;;;;;2.50;2.50;;;;;20.30;100.00;101885.91;4921208;28;44973;-93
2022/07/11 04:53:47;;;;;;;;;2.80;2.80;;;;;20.42;100.00;101879.41;4900589;28;45372;-91
2022/07/11 04:56:12;;;;;;;;;2.20;2.20;;;;;20.53;100.00;101879.31;4892908;28;46112;-91
2022/07/11 04:58:38;;;;;;;;;3.50;3.50;;;;;20.72;100.00;101885.75;4909409;28;44659;-90
2022/07/11 05:01:04;;;;;;;;;2.00;2.00;;;;;20.88;100.00;101886.03;4926693;28;44893;-92
2022/07/11 05:03:29;;;;;;;;;2.50;2.00;;;;;21.03;100.00;101881.03;4928550;28;45021;-91
2022/07/11 05:05:55;;;;;;;;;1.50;1.50;;;;;21.23;100.00;101885.47;4895509;28;44733;-91
2022/07/11 05:08:21;;;;;;;;;2.25;2.25;;;;;21.42;100.00;101895.44;4928651;28;44761;-90
2022/07/11 05:10:47;;;;;;;;;3.50;3.25;;;;;21.62;100.00;101893.53;4911418;28;44957;-90
2022/07/11 05:13:13;;;;;;;;;3.40;3.40;;;;;21.73;100.00;101890.63;4930158;28;45159;-90
2022/07/11 05:15:39;;;;;;;;;4.00;4.00;;;;;21.74;100.00;101895.03;4934071;28;44708;-90
2022/07/11 05:18:06;;;;;;;;;4.60;4.60;;;;;21.93;100.00;101890.56;4945957;28;44730;-93
2022/07/11 05:20:37;;;;;;;;;3.40;3.00;;;;;21.99;100.00;101898.94;4933061;28;44946;-92
2022/07/11 05:23:08;;;;;;;;;4.60;4.60;;;;;22.13;100.00;101894.06;4946258;28;45178;-93
2022/07/11 05:25:40;;;;;;;;;3.00;3.00;;;;;22.20;100.00;101898.75;4929823;28;44579;-93
2022/07/11 05:28:11;;;;;;;;;3.00;3.00;;;;;22.23;100.00;101895.72;4945079;28;44591;-93
2022/07/11 05:30:38;;;;;;;;;2.80;2.80;;;;;22.31;100.00;101903.09;4888432;29;44972;-94
2022/07/11 05:33:04;;;;;;;;;2.80;2.00;;;;;22.44;100.00;101900.91;4903953;29;45237;-93
2022/07/11 05:35:30;;;;;;;;;5.50;4.00;;;;;22.60;100.00;101900.22;4861078;29;44732;-90
2022/07/11 05:37:55;;;;;;;;;4.00;2.75;;;;;22.74;100.00;101904.25;4879186;29;44804;-91
2022/07/11 05:40:21;;;;;;;;;3.75;3.75;;;;;22.78;100.00;101900.25;4897236;29;44854;-91
2022/07/11 05:42:46;;;;;;;;;4.00;3.25;;;;;22.87;100.00;101906.56;4881087;29;44959;-90
2022/07/11 05:45:12;;;;;;;;;3.00;3.00;;;;;23.04;100.00;101903.06;4880334;29;44751;-91
2022/07/11 05:47:38;;;;;;;;;4.50;3.00;;;;;23.20;100.00;101900.47;4891614;29;44823;-91
2022/07/11 05:50:05;;;;;;;;;3.00;3.00;;;;;23.42;100.00;101898.28;4888215;29;44913;-90
2022/07/11 05:52:31;;;;;;;;;3.00;3.00;;;;;23.55;100.00;101906.88;4878903;29;45155;-91
2022/07/11 05:54:57;;;;;;;;;4.20;3.60;;;;;23.74;100.00;101900.38;4878689;29;44795;-91
2022/07/11 05:57:23;;;;;;;;;4.25;3.00;;;;;23.85;100.00;101906.41;4897577;29;44758;-90
2022/07/11 05:59:48;;;;;;;;;3.50;3.50;;;;;23.99;100.00;101895.97;4887548;29;44832;-90
2022/07/11 06:02:14;;;;;;;;;3.25;3.25;;;;;24.03;100.00;101900.91;4871336;29;45651;-91
2022/07/11 06:04:39;;;;;;;;;4.25;3.00;;;;;24.10;100.00;101903.81;4884636;29;44747;-91
2022/07/11 06:07:05;;;;;;;;;3.50;3.00;;;;;24.20;100.00;101906.41;4884848;29;44775;-91
2022/07/11 06:09:31;;;;;;;;;3.50;3.50;;;;;24.31;100.00;101909.66;4884751;29;44831;-90
2022/07/11 06:11:57;;;;;;;;;3.50;3.50;;;;;24.24;100.00;101895.03;4885964;29;45045;-91
2022/07/11 06:14:24;;;;;;;;;3.00;3.00;;;;;24.20;100.00;101900.97;4878389;29;44646;-94
2022/07/11 06:16:56;;;;;;;;;3.40;3.40;;;;;23.94;100.00;101904.59;4872046;29;44827;-94
2022/07/11 06:19:21;;;;;;;;;4.00;4.00;;;;;23.98;100.00;101905.97;4874636;29;44829;-91
2022/07/11 06:21:47;;;;;;;;;3.25;2.00;;;;;24.03;100.00;101911.75;4906848;28;45430;-91
2022/07/11 06:24:14;;;;;;;;;3.25;3.25;;;;;24.22;100.00;101909.78;4930360;28;44653;-91
2022/07/11 06:26:39;;;;;;;;;10.00;4.00;;;;;24.40;100.00;101902.41;4936929;28;44643;-90
2022/07/11 06:29:05;;;;;;;;;9.75;5.25;;;;;24.49;100.00;101912.31;4919332;28;44876;-90
2022/07/11 06:31:30;;;;;;;;;4.00;4.00;;;;;24.70;100.00;101913.72;4932767;28;45179;-91
2022/07/11 06:33:57;;;;;;;;;7.75;4.00;;;;;24.81;100.00;101916.97;4930675;28;44796;-92
2022/07/11 06:36:25;;;;;;;;;6.20;3.40;;;;;24.85;100.00;101912.03;4915154;28;44772;-91
2022/07/11 06:38:52;;;;;;;;;4.60;4.60;;;;;25.00;100.00;101914.97;4912105;28;44824;-90
2022/07/11 06:41:18;;;;;;;;;3.60;3.60;;;;;25.01;100.00;101912.06;4924582;28;45260;-90
2022/07/11 06:43:43;;;;;;;;;3.00;3.00;;;;;25.05;100.00;101910.72;4928701;28;44774;-90
2022/07/11 06:46:31;;;;;;;;;5.25;4.25;;;;;25.11;100.00;101911.94;4941138;28;44719;-94
2022/07/11 06:48:57;;;;;;;;;2.20;2.20;;;;;25.08;100.00;101907.66;4924297;28;44957;-94
2022/07/11 06:51:23;;;;;;;;;3.00;3.00;;;;;25.00;100.00;101902.22;4918660;28;46583;-94
2022/07/11 06:53:51;;;;;;;;;5.60;3.40;;;;;25.17;100.00;101894.94;4936228;28;44757;-93
2022/07/11 06:56:19;;;;;;;;;3.40;3.40;;;;;25.40;100.00;101907.84;4921218;28;44611;-94
2022/07/11 06:58:45;;;;;;;;;4.20;3.60;;;;;25.55;100.00;101906.13;4918445;28;44899;-94
2022/07/11 07:01:11;;;;;;;;;5.75;4.00;;;;;25.77;100.00;101896.41;4901892;28;45086;-94
2022/07/11 07:14:11;;;;;;;;;3.20;3.20;;;;;26.33;97.33;101905.41;1397224;26;45054;-92
2022/07/11 07:16:41;;;;;;;;;4.25;2.50;;;;;26.40;96.05;101900.94;4939381;28;44836;-92
2022/07/11 07:19:07;;;;;;;;;2.00;1.80;;;;;26.44;94.82;101907.75;4953901;28;44984;-92
2022/07/11 07:21:33;;;;;;;;;0.50;0.50;;;;;26.10;93.24;101908.88;4952527;28;45066;-93
2022/07/11 07:24:06;;;;;;;;;1.50;1.50;;;;;25.95;96.87;101905.19;4923047;28;45137;-93
2022/07/11 07:26:32;;;;;;;;;2.00;2.00;;;;;26.03;98.53;101904.34;4960476;28;44714;-92
2022/07/11 07:28:58;;;;;;;;;2.00;2.00;;;;;25.99;95.40;101908.44;4956659;28;44858;-92
2022/07/11 07:31:27;;;;;;;;;2.00;2.00;;;;;25.96;95.46;101911.50;4974578;28;45113;-92
2022/07/11 07:33:53;;;;;;;;;2.00;2.00;;;;;26.05;95.52;101918.63;4957672;28;44809;-92
2022/07/11 07:36:19;;;;;;;;;2.00;2.00;;;;;26.12;93.85;101914.19;4974814;28;44771;-92
2022/07/11 07:38:48;;;;;;;;;1.00;1.00;;;;;26.07;94.45;101914.72;4962799;28;44897;-92
2022/07/11 07:41:17;;;;;;;;;1.80;1.00;;;;;25.90;93.14;101904.88;4946603;28;45166;-92
2022/07/11 07:43:43;;;;;;;;;2.20;2.20;;;;;25.76;94.56;101906.44;4964509;28;44726;-91
2022/07/11 07:46:11;;;;;;;;;3.40;1.00;;;;;25.65;94.05;101906.78;4958534;28;44570;-92
2022/07/11 07:48:38;;;;;;;;;3.00;1.40;;;;;25.68;94.72;101913.78;4952928;28;44964;-92
2022/07/11 07:51:07;;;;;;;;;1.60;1.00;;;;;25.70;94.53;101912.56;4954803;28;45365;-92
2022/07/11 07:53:33;;;;;;;;;2.00;2.00;;;;;25.65;95.81;101917.69;4954754;28;44798;-93
2022/07/11 07:56:00;;;;;;;;;4.00;2.80;;;;;25.64;94.83;101915.97;4966655;28;44640;-92
2022/07/11 07:58:28;;;;;;;;;4.50;3.25;;;;;25.62;94.77;101907.13;4962056;28;44901;-93
2022/07/11 08:03:41;;;;;;;;;2.40;2.40;;;;;25.59;96.17;101908.34;4955502;28;44769;-92
2022/07/11 08:06:06;;;;;;;;;5.40;3.40;;;;;25.55;96.06;101912.41;4954434;28;44780;-91
2022/07/11 08:08:34;;;;;;;;;1.00;1.00;;;;;25.36;95.59;101913.63;4939091;28;44835;-92
2022/07/11 08:11:02;;;;;;;;;4.40;4.40;;;;;25.37;96.57;101912.59;4947719;28;45071;-92
2022/07/11 08:13:29;;;;;;;;;4.00;3.40;;;;;25.43;96.47;101907.50;4955091;28;44875;-92
2022/07/11 08:18:41;;;;;;;;;2.00;2.00;;;;;25.69;97.08;101910.03;4960786;28;44721;-92
2022/07/11 08:21:10;;;;;;;;;0.20;0.20;;;;;25.68;96.54;101911.06;4942870;28;45119;-92
2022/07/11 08:23:42;;;;;;;;;2.40;2.00;;;;;25.76;95.69;101914.63;4956495;28;44674;-91
2022/07/11 08:26:09;;;;;;;;;4.60;4.60;;;;;25.85;95.19;101907.28;4958596;28;44734;-93
2022/07/11 08:28:35;;;;;;;;;2.00;2.00;;;;;25.92;93.87;101900.13;4959748;28;44865;-93
2022/07/11 08:31:05;;;;;;;;;1.60;1.60;;;;;25.87;93.07;101889.75;4961887;28;45137;-92
2022/07/11 08:33:30;;;;;;;;;3.60;1.00;;;;;25.86;92.13;101885.31;4943583;28;44767;-93
2022/07/11 08:35:57;;;;;;;;;2.00;2.00;;;;;25.85;92.86;101882.78;4976533;28;44681;-93
2022/07/11 08:38:27;;;;;;;;;1.80;1.80;;;;;25.94;93.04;101883.59;4959940;28;44780;-92
2022/07/11 08:41:11;;;;;;;;;2.60;2.00;;;;;25.96;92.66;101878.81;4960761;28;45165;-94
2022/07/11 08:47:03;;;;;;;;;2.40;1.40;;;;;25.88;93.50;101866.94;4958454;28;44626;-93
2022/07/11 08:52:53;;;;;;;;;3.80;2.00;;;;;25.69;94.01;101869.19;4960316;28;44862;-93
2022/07/11 08:55:21;;;;;;;;;3.00;2.20;;;;;25.57;95.37;101864.09;4956302;28;44808;-93
2022/07/11 08:58:05;;;;;;;;;3.40;3.40;;;;;25.71;95.85;101858.97;4955022;28;45412;-92
2022/07/11 09:00:35;;;;;;;;;4.80;3.00;;;;;25.97;94.42;101864.19;4959406;28;44777;-92
2022/07/11 09:03:05;;;;;;;;;1.80;1.80;;;;;26.08;93.67;101853.75;4959634;28;45221;-92
2022/07/11 09:05:35;;;;;;;;;4.00;3.00;;;;;26.23;93.92;101863.91;4964722;28;44748;-92
2022/07/11 09:08:04;;;;;;;;;1.60;1.00;;;;;26.22;93.84;101848.59;4961769;28;44904;-93
2022/07/11 09:10:31;;;;;;;;;2.20;2.20;;;;;26.20;94.16;101867.81;4965370;28;44879;-93
2022/07/11 09:13:44;;;;;;;;;2.00;2.00;;;;;26.16;92.67;101861.06;4937887;28;45194;-89
2022/07/11 09:16:09;;;;;;;;;1.80;1.80;;;;;26.19;92.53;101854.38;4946167;28;44780;-88
2022/07/11 09:18:40;;;;;;;;;1.25;1.25;;;;;26.34;93.45;101850.72;4946982;28;44781;-90
2022/07/11 09:26:55;;;;;;;;;3.00;1.00;;;;;26.62;91.92;101852.97;4949199;28;44613;-90
2022/07/11 09:29:25;;;;;;;;;1.60;1.60;;;;;26.73;92.22;101855.25;4956596;28;44669;-93
2022/07/11 09:31:53;;;;;;;;;0.00;0.00;;;;;26.62;92.27;101851.09;4930707;28;44944;-94
2022/07/11 09:34:27;;;;;;;;;4.20;2.00;;;;;26.33;92.49;101842.72;4963245;28;45342;-92
2022/07/11 09:36:55;;;;;;;;;3.20;3.20;;;;;26.29;92.83;101849.56;4945672;28;44738;-93
2022/07/11 09:39:44;;;;;;;;;5.80;4.60;;;;;26.24;94.01;101843.78;4948538;28;44640;-92
2022/07/11 09:42:10;;;;;;;;;3.00;2.40;;;;;26.36;93.76;101831.47;4965676;28;44784;-91
2022/07/11 09:44:55;;;;;;;;;2.75;2.00;;;;;26.51;93.34;101832.44;4935675;28;45083;-93
2022/07/11 09:47:22;;;;;;;;;1.20;1.20;;;;;26.71;93.01;101835.53;4968433;28;44761;-92
2022/07/11 09:49:49;;;;;;;;;3.00;3.00;;;;;26.76;91.96;101835.81;4967895;28;44777;-92
2022/07/11 09:52:17;;;;;;;;;2.60;2.60;;;;;26.74;91.51;101842.47;4963561;28;44860;-90
2022/07/11 09:54:56;;;;;;;;;2.00;2.00;;;;;26.86;91.46;101835.56;4953789;28;45281;-89
2022/07/11 09:57:33;;;;;;;;;3.40;2.60;;;;;26.97;91.82;101832.41;4956268;28;44835;-85
2022/07/11 10:00:17;;;;;;;;;4.40;2.40;;;;;26.95;90.59;101842.66;4958612;28;44755;-91
2022/07/11 10:02:42;;;;;;;;;2.00;2.00;;;;;26.70;90.44;101846.63;4958926;28;44827;-90
2022/07/11 10:05:29;;;;;;;;;4.00;2.50;;;;;26.68;91.68;101840.47;4955620;28;45275;-93
2022/07/11 10:07:57;;;;;;;;;1.00;1.00;;;;;26.66;91.54;101829.78;4955084;28;44599;-93
2022/07/11 10:10:30;;;;;;;;;1.00;1.00;;;;;26.55;91.75;101831.03;4938090;28;44652;-92
2022/07/11 10:12:57;;;;;;;;;1.40;1.40;;;;;26.73;91.33;101832.59;4955235;28;44789;-92
2022/07/11 10:15:29;;;;;;;;;1.20;1.20;;;;;26.63;91.06;101833.69;4936384;28;45300;-93
2022/07/11 10:18:19;;;;;;;;;1.80;1.80;;;;;26.57;91.50;101828.97;4954884;28;44658;-92
2022/07/11 10:21:20;;;;;;;;;3.00;3.00;;;;;26.63;91.73;101830.97;4957053;28;44815;-93
2022/07/11 10:23:56;;;;;;;;;3.00;2.40;;;;;26.74;91.53;101840.63;4939927;28;44886;-92
2022/07/11 10:26:27;;;;;;;;;2.00;2.00;;;;;26.59;91.35;101828.78;4961539;28;46716;-93
2022/07/11 10:29:26;;;;;;;;;2.00;2.00;;;;;26.68;91.16;101826.84;4964997;28;44806;-92
2022/07/11 10:32:05;;;;;;;;;4.00;2.00;;;;;26.94;92.21;101819.16;4966256;28;44909;-91
2022/07/11 10:34:32;;;;;;;;;3.20;1.60;;;;;27.13;91.69;101817.81;4968519;28;44812;-92
2022/07/11 10:37:06;;;;;;;;;2.00;1.00;;;;;27.24;90.09;101824.69;4950781;28;46941;-93
2022/07/11 10:39:35;;;;;;;;;3.60;2.20;;;;;27.46;90.96;101823.75;5446925;23;45755;-90
2022/07/11 10:42:03;;;;;;;;;1.00;1.00;;;;;27.66;88.84;101833.13;4923065;28;44720;-91
2022/07/11 10:44:47;;;;;;;;;3.00;3.00;;;;;27.73;88.19;101829.66;4933105;28;44759;-91
2022/07/11 10:47:43;;;;;;;;;2.00;2.00;;;;;27.82;85.30;101839.44;4917841;28;45284;-90
2022/07/11 10:50:21;;;;;;;;;3.00;3.00;;;;;27.74;86.12;101832.19;4928588;28;44793;-92
2022/07/11 10:52:49;;;;;;;;;1.80;1.80;;;;;27.59;86.34;101840.34;4932849;28;44602;-92
2022/07/11 10:55:35;;;;;;;;;1.00;1.00;;;;;27.46;86.52;101848.31;4911327;28;45046;-90
2022/07/11 10:58:11;;;;;;;;;3.60;2.20;;;;;27.36;86.58;101839.56;4908295;28;45337;-92
2022/07/11 11:00:36;;;;;;;;;4.00;1.20;;;;;27.38;87.17;101837.53;4927264;28;44775;-89
2022/07/11 11:03:05;;;;;;;;;2.00;0.50;;;;;27.58;87.66;101826.88;4912563;28;44697;-91
2022/07/11 11:05:54;;;;;;;;;1.80;1.80;;;;;27.73;87.30;101833.22;4929922;28;44769;-91
2022/07/11 11:08:55;;;;;;;;;2.00;2.00;;;;;27.97;86.55;101833.97;4922972;28;45277;-95
2022/07/11 11:11:21;;;;;;;;;2.20;2.20;;;;;27.97;85.32;101825.78;4854131;29;44696;-92
2022/07/11 11:24:14;;;;;;;;;1.80;1.80;;;;;28.02;84.07;101806.91;4863693;29;44648;-94
2022/07/11 11:26:51;;;;;;;;;4.00;3.00;;;;;28.22;83.54;101813.47;4788628;29;44731;-94
2022/07/11 11:29:26;;;;;;;;;2.60;2.00;;;;;28.35;83.91;101808.19;4774686;29;44868;-95
2022/07/11 11:31:54;;;;;;;;;1.80;1.80;;;;;28.43;81.77;101812.66;4794905;29;45149;-94
2022/07/11 11:34:20;;;;;;;;;8.80;7.60;;;;;28.45;81.82;101809.75;4780685;29;44739;-94
2022/07/11 11:36:56;;;;;;;;;2.60;1.20;;;;;28.54;81.31;101803.13;4781337;29;44726;-94
2022/07/11 11:39:43;;;;;;;;;2.00;2.00;;;;;28.62;80.17;101802.97;4782389;29;44744;-94
2022/07/11 11:42:15;;;;;;;;;1.60;1.60;;;;;28.39;80.67;101808.63;4833558;29;45139;-95
2022/07/11 11:44:54;;;;;;;;;2.20;1.00;;;;;28.17;80.97;101794.06;4833829;29;44724;-94
2022/07/11 11:47:25;;;;;;;;;2.00;2.00;;;;;28.13;81.36;101790.84;4833574;29;44834;-95
2022/07/11 11:49:53;;;;;;;;;2.40;2.00;;;;;28.37;81.55;101794.31;4842728;29;44935;-95
2022/07/11 11:52:19;;;;;;;;;2.60;2.60;;;;;28.53;81.46;101790.47;4885530;29;45383;-92
2022/07/11 11:54:51;;;;;;;;;1.25;1.25;;;;;28.68;80.94;101788.53;4860559;29;44823;-90
2022/07/11 11:57:16;;;;;;;;;1.00;1.00;;;;;28.59;78.67;101797.91;4860723;29;44750;-92
2022/07/11 11:59:42;;;;;;;;;1.50;1.50;;;;;28.49;79.57;101787.28;4877825;29;44720;-92
2022/07/11 12:02:09;;;;;;;;;2.00;2.00;;;;;28.48;79.03;101785.59;4883775;29;45185;-90
2022/07/11 12:04:36;;;;;;;;;2.80;2.00;;;;;28.38;78.71;101780.47;4921672;28;44663;-91
2022/07/11 12:07:03;;;;;;;;;2.40;2.40;;;;;28.56;79.80;101784.59;4910057;28;44721;-91
2022/07/11 12:09:49;;;;;;;;;3.00;3.00;;;;;28.61;78.71;101773.94;4909720;28;44831;-91
2022/07/11 12:12:47;;;;;;;;;4.20;3.60;;;;;28.67;78.61;101774.00;4910594;29;45617;-91